sensor_id;sensor_type;location;lat;lon;timestamp;P1;durP1;ratioP1;P2;durP2;ratioP2
22995;SDS011;11664;49.774;8.650;2023-06-14T00:00:41;5.65;;;4.70;;
22995;SDS011;11664;49.774;8.650;2023-06-14T00:03:14;5.57;;;5.07;;
22995;SDS011;11664;49.774;8.650;2023-06-14T00:05:45;6.25;;;5.65;;
22995;SDS011;11664;49.774;8.650;2023-06-14T00:08:11;5.50;;;5.00;;
22995;SDS011;11664;49.774;8.650;2023-06-14T00:10:40;6.50;;;5.40;;
22995;SDS011;11664;49.774;8.650;2023-06-14T00:13:16;6.90;;;6.25;;
22995;SDS011;11664;49.774;8.650;2023-06-14T00:15:41;5.65;;;5.15;;
22995;SDS011;11664;49.774;8.650;2023-06-14T00:18:07;5.05;;;4.55;;
22995;SDS011;11664;49.774;8.650;2023-06-14T00:20:37;6.45;;;4.85;;
22995;SDS011;11664;49.774;8.650;2023-06-14T00:23:07;4.90;;;4.40;;
22995;SDS011;11664;49.774;8.650;2023-06-14T00:25:33;4.80;;;4.40;;
22995;SDS011;11664;49.774;8.650;2023-06-14T00:28:01;5.65;;;5.05;;
22995;SDS011;11664;49.774;8.650;2023-06-14T00:30:27;5.50;;;4.97;;
22995;SDS011;11664;49.774;8.650;2023-06-14T00:32:55;5.65;;;5.25;;
22995;SDS011;11664;49.774;8.650;2023-06-14T00:35:30;6.22;;;5.53;;
22995;SDS011;11664;49.774;8.650;2023-06-14T00:37:55;5.10;;;4.60;;
22995;SDS011;11664;49.774;8.650;2023-06-14T00:40:24;5.97;;;5.40;;
22995;SDS011;11664;49.774;8.650;2023-06-14T00:42:50;6.95;;;5.00;;
22995;SDS011;11664;49.774;8.650;2023-06-14T00:45:18;5.88;;;5.15;;
22995;SDS011;11664;49.774;8.650;2023-06-14T00:47:47;5.35;;;4.85;;
22995;SDS011;11664;49.774;8.650;2023-06-14T00:50:22;5.88;;;5.35;;
22995;SDS011;11664;49.774;8.650;2023-06-14T00:52:48;5.35;;;4.93;;
22995;SDS011;11664;49.774;8.650;2023-06-14T00:55:17;5.30;;;4.78;;
22995;SDS011;11664;49.774;8.650;2023-06-14T00:57:43;6.32;;;5.75;;
22995;SDS011;11664;49.774;8.650;2023-06-14T01:00:17;6.32;;;5.75;;
22995;SDS011;11664;49.774;8.650;2023-06-14T01:02:43;6.22;;;5.65;;
22995;SDS011;11664;49.774;8.650;2023-06-14T01:05:15;6.63;;;5.13;;
22995;SDS011;11664;49.774;8.650;2023-06-14T01:10:57;5.25;;;4.85;;
22995;SDS011;11664;49.774;8.650;2023-06-14T01:13:36;6.28;;;5.68;;
22995;SDS011;11664;49.774;8.650;2023-06-14T01:16:05;6.75;;;6.22;;
22995;SDS011;11664;49.774;8.650;2023-06-14T01:18:32;8.95;;;5.47;;
22995;SDS011;11664;49.774;8.650;2023-06-14T01:20:58;8.88;;;6.88;;
22995;SDS011;11664;49.774;8.650;2023-06-14T01:23:27;7.03;;;6.32;;
22995;SDS011;11664;49.774;8.650;2023-06-14T01:26:03;7.28;;;6.65;;
22995;SDS011;11664;49.774;8.650;2023-06-14T01:28:29;7.45;;;6.85;;
22995;SDS011;11664;49.774;8.650;2023-06-14T01:30:59;6.63;;;6.05;;
22995;SDS011;11664;49.774;8.650;2023-06-14T01:33:29;8.05;;;7.35;;
22995;SDS011;11664;49.774;8.650;2023-06-14T01:35:59;8.18;;;7.43;;
22995;SDS011;11664;49.774;8.650;2023-06-14T01:38:26;8.25;;;6.45;;
22995;SDS011;11664;49.774;8.650;2023-06-14T01:40:59;7.30;;;6.72;;
22995;SDS011;11664;49.774;8.650;2023-06-14T01:43:39;6.50;;;6.00;;
22995;SDS011;11664;49.774;8.650;2023-06-14T01:46:06;7.03;;;6.10;;
22995;SDS011;11664;49.774;8.650;2023-06-14T01:48:39;7.95;;;5.50;;
22995;SDS011;11664;49.774;8.650;2023-06-14T01:53:30;5.35;;;4.47;;
22995;SDS011;11664;49.774;8.650;2023-06-14T01:56:14;5.88;;;5.32;;
22995;SDS011;11664;49.774;8.650;2023-06-14T01:58:40;6.72;;;6.15;;
22995;SDS011;11664;49.774;8.650;2023-06-14T02:01:05;8.00;;;5.88;;
22995;SDS011;11664;49.774;8.650;2023-06-14T02:03:35;6.10;;;5.53;;
22995;SDS011;11664;49.774;8.650;2023-06-14T02:06:03;14.87;;;5.27;;
22995;SDS011;11664;49.774;8.650;2023-06-14T02:08:38;6.88;;;6.25;;
22995;SDS011;11664;49.774;8.650;2023-06-14T02:11:13;6.40;;;5.03;;
22995;SDS011;11664;49.774;8.650;2023-06-14T02:14:03;6.15;;;5.55;;
22995;SDS011;11664;49.774;8.650;2023-06-14T02:16:28;20.10;;;6.95;;
22995;SDS011;11664;49.774;8.650;2023-06-14T02:19:09;5.90;;;5.32;;
22995;SDS011;11664;49.774;8.650;2023-06-14T02:21:35;6.03;;;4.63;;
22995;SDS011;11664;49.774;8.650;2023-06-14T02:24:01;5.05;;;4.55;;
22995;SDS011;11664;49.774;8.650;2023-06-14T02:26:27;6.68;;;5.22;;
22995;SDS011;11664;49.774;8.650;2023-06-14T02:28:59;5.35;;;4.85;;
22995;SDS011;11664;49.774;8.650;2023-06-14T02:31:28;6.38;;;5.80;;
22995;SDS011;11664;49.774;8.650;2023-06-14T02:33:54;7.78;;;5.32;;
22995;SDS011;11664;49.774;8.650;2023-06-14T02:36:22;5.88;;;5.38;;
22995;SDS011;11664;49.774;8.650;2023-06-14T02:38:54;5.57;;;5.07;;
22995;SDS011;11664;49.774;8.650;2023-06-14T02:41:25;8.60;;;5.97;;
22995;SDS011;11664;49.774;8.650;2023-06-14T02:43:57;6.10;;;5.57;;
22995;SDS011;11664;49.774;8.650;2023-06-14T02:46:35;7.10;;;5.32;;
22995;SDS011;11664;49.774;8.650;2023-06-14T02:49:07;7.95;;;5.10;;
22995;SDS011;11664;49.774;8.650;2023-06-14T02:51:32;5.97;;;5.47;;
22995;SDS011;11664;49.774;8.650;2023-06-14T02:54:01;6.30;;;5.72;;
22995;SDS011;11664;49.774;8.650;2023-06-14T02:56:29;6.95;;;6.35;;
22995;SDS011;11664;49.774;8.650;2023-06-14T02:59:04;5.78;;;5.28;;
22995;SDS011;11664;49.774;8.650;2023-06-14T03:01:30;11.23;;;7.20;;
22995;SDS011;11664;49.774;8.650;2023-06-14T03:04:01;8.93;;;8.23;;
22995;SDS011;11664;49.774;8.650;2023-06-14T03:06:28;7.93;;;7.22;;
22995;SDS011;11664;49.774;8.650;2023-06-14T03:09:04;6.30;;;5.70;;
22995;SDS011;11664;49.774;8.650;2023-06-14T03:11:38;5.53;;;4.83;;
22995;SDS011;11664;49.774;8.650;2023-06-14T03:14:07;5.72;;;5.18;;
22995;SDS011;11664;49.774;8.650;2023-06-14T03:16:39;5.95;;;5.25;;
22995;SDS011;11664;49.774;8.650;2023-06-14T03:19:12;8.85;;;5.75;;
22995;SDS011;11664;49.774;8.650;2023-06-14T03:21:37;6.40;;;5.80;;
22995;SDS011;11664;49.774;8.650;2023-06-14T03:24:15;5.93;;;5.32;;
22995;SDS011;11664;49.774;8.650;2023-06-14T03:26:47;5.85;;;5.25;;
22995;SDS011;11664;49.774;8.650;2023-06-14T03:29:22;6.85;;;6.18;;
22995;SDS011;11664;49.774;8.650;2023-06-14T03:31:57;7.07;;;6.47;;
22995;SDS011;11664;49.774;8.650;2023-06-14T03:34:32;10.32;;;6.85;;
22995;SDS011;11664;49.774;8.650;2023-06-14T03:36:58;6.70;;;6.20;;
22995;SDS011;11664;49.774;8.650;2023-06-14T03:39:29;9.15;;;7.32;;
22995;SDS011;11664;49.774;8.650;2023-06-14T03:41:55;6.85;;;6.35;;
22995;SDS011;11664;49.774;8.650;2023-06-14T03:44:26;9.70;;;6.13;;
22995;SDS011;11664;49.774;8.650;2023-06-14T03:46:58;8.95;;;5.75;;
22995;SDS011;11664;49.774;8.650;2023-06-14T03:49:32;10.07;;;7.05;;
22995;SDS011;11664;49.774;8.650;2023-06-14T03:51:58;7.57;;;6.88;;
22995;SDS011;11664;49.774;8.650;2023-06-14T03:54:24;7.32;;;6.82;;
22995;SDS011;11664;49.774;8.650;2023-06-14T03:57:15;8.82;;;7.25;;
22995;SDS011;11664;49.774;8.650;2023-06-14T03:59:40;10.25;;;9.35;;
22995;SDS011;11664;49.774;8.650;2023-06-14T04:02:06;10.63;;;9.82;;
22995;SDS011;11664;49.774;8.650;2023-06-14T04:04:38;8.77;;;8.05;;
22995;SDS011;11664;49.774;8.650;2023-06-14T04:07:10;9.75;;;8.93;;
22995;SDS011;11664;49.774;8.650;2023-06-14T04:09:37;9.27;;;8.50;;
22995;SDS011;11664;49.774;8.650;2023-06-14T04:12:02;7.78;;;7.20;;
22995;SDS011;11664;49.774;8.650;2023-06-14T04:14:39;11.30;;;10.57;;
22995;SDS011;11664;49.774;8.650;2023-06-14T04:17:05;12.82;;;11.90;;
22995;SDS011;11664;49.774;8.650;2023-06-14T04:19:37;11.93;;;10.85;;
22995;SDS011;11664;49.774;8.650;2023-06-14T04:22:03;9.23;;;8.38;;
22995;SDS011;11664;49.774;8.650;2023-06-14T04:24:29;8.93;;;8.23;;
22995;SDS011;11664;49.774;8.650;2023-06-14T04:26:59;8.20;;;7.50;;
22995;SDS011;11664;49.774;8.650;2023-06-14T04:29:32;7.07;;;6.40;;
22995;SDS011;11664;49.774;8.650;2023-06-14T04:32:00;8.48;;;7.68;;
22995;SDS011;11664;49.774;8.650;2023-06-14T04:34:32;7.45;;;6.75;;
22995;SDS011;11664;49.774;8.650;2023-06-14T04:37:01;7.20;;;6.60;;
22995;SDS011;11664;49.774;8.650;2023-06-14T04:39:36;10.85;;;9.98;;
22995;SDS011;11664;49.774;8.650;2023-06-14T04:42:16;9.98;;;9.25;;
22995;SDS011;11664;49.774;8.650;2023-06-14T04:44:48;8.00;;;7.47;;
22995;SDS011;11664;49.774;8.650;2023-06-14T04:47:17;6.97;;;6.38;;
22995;SDS011;11664;49.774;8.650;2023-06-14T04:49:43;7.88;;;7.25;;
22995;SDS011;11664;49.774;8.650;2023-06-14T04:52:09;9.23;;;8.35;;
22995;SDS011;11664;49.774;8.650;2023-06-14T04:54:47;9.88;;;7.10;;
22995;SDS011;11664;49.774;8.650;2023-06-14T04:57:16;8.57;;;7.80;;
22995;SDS011;11664;49.774;8.650;2023-06-14T04:59:45;8.25;;;7.63;;
22995;SDS011;11664;49.774;8.650;2023-06-14T05:02:17;6.28;;;5.78;;
22995;SDS011;11664;49.774;8.650;2023-06-14T05:04:54;7.13;;;6.53;;
22995;SDS011;11664;49.774;8.650;2023-06-14T05:07:24;6.97;;;6.15;;
22995;SDS011;11664;49.774;8.650;2023-06-14T05:09:56;7.00;;;6.43;;
22995;SDS011;11664;49.774;8.650;2023-06-14T05:12:22;11.38;;;10.02;;
22995;SDS011;11664;49.774;8.650;2023-06-14T05:18:09;10.27;;;9.23;;
22995;SDS011;11664;49.774;8.650;2023-06-14T05:20:38;12.70;;;10.10;;
22995;SDS011;11664;49.774;8.650;2023-06-14T05:23:03;11.40;;;10.48;;
22995;SDS011;11664;49.774;8.650;2023-06-14T05:25:29;9.05;;;8.07;;
22995;SDS011;11664;49.774;8.650;2023-06-14T05:27:54;10.73;;;8.32;;
22995;SDS011;11664;49.774;8.650;2023-06-14T05:30:20;10.23;;;9.30;;
22995;SDS011;11664;49.774;8.650;2023-06-14T05:32:45;7.25;;;6.68;;
22995;SDS011;11664;49.774;8.650;2023-06-14T05:35:11;9.43;;;8.63;;
22995;SDS011;11664;49.774;8.650;2023-06-14T05:37:36;12.07;;;9.45;;
22995;SDS011;11664;49.774;8.650;2023-06-14T05:40:02;7.15;;;6.55;;
22995;SDS011;11664;49.774;8.650;2023-06-14T05:42:32;7.18;;;6.57;;
22995;SDS011;11664;49.774;8.650;2023-06-14T05:44:58;6.20;;;5.63;;
22995;SDS011;11664;49.774;8.650;2023-06-14T05:47:23;6.25;;;5.32;;
22995;SDS011;11664;49.774;8.650;2023-06-14T05:49:49;6.20;;;4.60;;
22995;SDS011;11664;49.774;8.650;2023-06-14T05:52:14;6.22;;;5.20;;
22995;SDS011;11664;49.774;8.650;2023-06-14T05:54:43;5.55;;;4.90;;
22995;SDS011;11664;49.774;8.650;2023-06-14T05:57:08;7.25;;;5.15;;
22995;SDS011;11664;49.774;8.650;2023-06-14T05:59:38;5.72;;;5.22;;
22995;SDS011;11664;49.774;8.650;2023-06-14T06:02:04;6.63;;;5.63;;
22995;SDS011;11664;49.774;8.650;2023-06-14T06:04:30;10.63;;;6.72;;
22995;SDS011;11664;49.774;8.650;2023-06-14T06:06:55;8.98;;;5.47;;
22995;SDS011;11664;49.774;8.650;2023-06-14T06:09:21;5.70;;;5.10;;
22995;SDS011;11664;49.774;8.650;2023-06-14T06:11:46;5.68;;;5.13;;
22995;SDS011;11664;49.774;8.650;2023-06-14T06:14:12;4.97;;;4.47;;
22995;SDS011;11664;49.774;8.650;2023-06-14T06:16:37;11.05;;;5.07;;
22995;SDS011;11664;49.774;8.650;2023-06-14T06:19:03;5.90;;;5.40;;
22995;SDS011;11664;49.774;8.650;2023-06-14T06:21:28;7.10;;;6.30;;
22995;SDS011;11664;49.774;8.650;2023-06-14T06:23:54;6.03;;;5.53;;
22995;SDS011;11664;49.774;8.650;2023-06-14T06:26:21;5.88;;;5.15;;
22995;SDS011;11664;49.774;8.650;2023-06-14T06:28:47;4.70;;;4.30;;
22995;SDS011;11664;49.774;8.650;2023-06-14T06:31:13;4.70;;;4.10;;
22995;SDS011;11664;49.774;8.650;2023-06-14T06:33:38;6.53;;;5.22;;
22995;SDS011;11664;49.774;8.650;2023-06-14T06:36:04;6.22;;;5.68;;
22995;SDS011;11664;49.774;8.650;2023-06-14T06:38:30;6.82;;;5.55;;
22995;SDS011;11664;49.774;8.650;2023-06-14T06:40:56;7.20;;;6.47;;
22995;SDS011;11664;49.774;8.650;2023-06-14T06:43:21;6.85;;;6.25;;
22995;SDS011;11664;49.774;8.650;2023-06-14T06:45:47;6.72;;;6.15;;
22995;SDS011;11664;49.774;8.650;2023-06-14T06:48:13;5.72;;;4.50;;
22995;SDS011;11664;49.774;8.650;2023-06-14T06:50:38;5.30;;;4.75;;
22995;SDS011;11664;49.774;8.650;2023-06-14T06:53:04;5.03;;;4.55;;
22995;SDS011;11664;49.774;8.650;2023-06-14T06:55:30;6.22;;;5.30;;
22995;SDS011;11664;49.774;8.650;2023-06-14T06:57:55;6.60;;;6.03;;
22995;SDS011;11664;49.774;8.650;2023-06-14T07:00:21;6.10;;;4.80;;
22995;SDS011;11664;49.774;8.650;2023-06-14T07:02:47;9.35;;;5.15;;
22995;SDS011;11664;49.774;8.650;2023-06-14T07:05:12;5.43;;;4.93;;
22995;SDS011;11664;49.774;8.650;2023-06-14T07:07:38;7.43;;;5.97;;
22995;SDS011;11664;49.774;8.650;2023-06-14T07:10:04;7.32;;;6.63;;
22995;SDS011;11664;49.774;8.650;2023-06-14T07:12:33;7.68;;;6.93;;
22995;SDS011;11664;49.774;8.650;2023-06-14T07:15:01;7.85;;;7.18;;
22995;SDS011;11664;49.774;8.650;2023-06-14T07:17:26;7.00;;;6.50;;
22995;SDS011;11664;49.774;8.650;2023-06-14T07:19:52;7.50;;;6.90;;
22995;SDS011;11664;49.774;8.650;2023-06-14T07:22:18;9.98;;;7.70;;
22995;SDS011;11664;49.774;8.650;2023-06-14T07:24:44;5.60;;;5.15;;
22995;SDS011;11664;49.774;8.650;2023-06-14T07:27:10;6.68;;;6.00;;
22995;SDS011;11664;49.774;8.650;2023-06-14T07:29:38;6.50;;;5.90;;
22995;SDS011;11664;49.774;8.650;2023-06-14T07:32:03;9.63;;;6.57;;
22995;SDS011;11664;49.774;8.650;2023-06-14T07:34:29;8.15;;;7.35;;
22995;SDS011;11664;49.774;8.650;2023-06-14T07:36:55;6.25;;;4.97;;
22995;SDS011;11664;49.774;8.650;2023-06-14T07:39:20;7.47;;;6.60;;
22995;SDS011;11664;49.774;8.650;2023-06-14T07:41:46;6.85;;;6.18;;
22995;SDS011;11664;49.774;8.650;2023-06-14T07:44:12;7.35;;;4.68;;
22995;SDS011;11664;49.774;8.650;2023-06-14T07:46:38;5.38;;;4.78;;
22995;SDS011;11664;49.774;8.650;2023-06-14T07:49:03;5.28;;;4.88;;
22995;SDS011;11664;49.774;8.650;2023-06-14T07:51:30;5.32;;;4.93;;
22995;SDS011;11664;49.774;8.650;2023-06-14T07:53:55;5.45;;;4.97;;
22995;SDS011;11664;49.774;8.650;2023-06-14T07:56:21;5.75;;;5.18;;
22995;SDS011;11664;49.774;8.650;2023-06-14T07:58:48;7.05;;;6.45;;
22995;SDS011;11664;49.774;8.650;2023-06-14T08:01:13;8.95;;;7.40;;
22995;SDS011;11664;49.774;8.650;2023-06-14T08:03:39;5.50;;;5.05;;
22995;SDS011;11664;49.774;8.650;2023-06-14T08:06:04;10.98;;;4.60;;
22995;SDS011;11664;49.774;8.650;2023-06-14T08:08:31;7.38;;;6.40;;
22995;SDS011;11664;49.774;8.650;2023-06-14T08:10:56;5.53;;;5.00;;
22995;SDS011;11664;49.774;8.650;2023-06-14T08:13:22;6.00;;;5.50;;
22995;SDS011;11664;49.774;8.650;2023-06-14T08:15:47;5.30;;;4.90;;
22995;SDS011;11664;49.774;8.650;2023-06-14T08:18:13;5.85;;;5.32;;
22995;SDS011;11664;49.774;8.650;2023-06-14T08:20:38;5.95;;;5.45;;
22995;SDS011;11664;49.774;8.650;2023-06-14T08:23:05;7.97;;;7.43;;
22995;SDS011;11664;49.774;8.650;2023-06-14T08:25:30;8.32;;;7.53;;
22995;SDS011;11664;49.774;8.650;2023-06-14T08:27:56;7.80;;;7.10;;
22995;SDS011;11664;49.774;8.650;2023-06-14T08:30:21;5.93;;;5.43;;
22995;SDS011;11664;49.774;8.650;2023-06-14T08:32:47;6.72;;;6.20;;
22995;SDS011;11664;49.774;8.650;2023-06-14T08:35:13;7.00;;;6.50;;
22995;SDS011;11664;49.774;8.650;2023-06-14T08:37:42;7.95;;;5.07;;
22995;SDS011;11664;49.774;8.650;2023-06-14T08:42:44;5.32;;;4.82;;
22995;SDS011;11664;49.774;8.650;2023-06-14T08:45:11;6.18;;;5.78;;
22995;SDS011;11664;49.774;8.650;2023-06-14T08:47:36;8.38;;;6.80;;
22995;SDS011;11664;49.774;8.650;2023-06-14T08:50:03;7.13;;;5.82;;
22995;SDS011;11664;49.774;8.650;2023-06-14T08:52:29;6.00;;;5.15;;
22995;SDS011;11664;49.774;8.650;2023-06-14T08:54:58;5.25;;;4.85;;
22995;SDS011;11664;49.774;8.650;2023-06-14T08:57:25;5.22;;;4.80;;
22995;SDS011;11664;49.774;8.650;2023-06-14T08:59:55;7.22;;;6.30;;
22995;SDS011;11664;49.774;8.650;2023-06-14T09:02:21;8.77;;;5.00;;
22995;SDS011;11664;49.774;8.650;2023-06-14T09:04:47;7.25;;;6.07;;
22995;SDS011;11664;49.774;8.650;2023-06-14T09:07:14;6.55;;;6.03;;
22995;SDS011;11664;49.774;8.650;2023-06-14T09:09:40;5.85;;;5.38;;
22995;SDS011;11664;49.774;8.650;2023-06-14T09:12:15;5.82;;;5.32;;
22995;SDS011;11664;49.774;8.650;2023-06-14T09:14:41;4.85;;;4.45;;
22995;SDS011;11664;49.774;8.650;2023-06-14T09:17:07;10.13;;;6.35;;
22995;SDS011;11664;49.774;8.650;2023-06-14T09:19:33;9.95;;;9.32;;
22995;SDS011;11664;49.774;8.650;2023-06-14T09:22:00;5.15;;;4.85;;
22995;SDS011;11664;49.774;8.650;2023-06-14T09:24:25;8.82;;;8.27;;
22995;SDS011;11664;49.774;8.650;2023-06-14T09:26:51;9.90;;;9.30;;
22995;SDS011;11664;49.774;8.650;2023-06-14T09:29:17;9.88;;;9.25;;
22995;SDS011;11664;49.774;8.650;2023-06-14T09:31:45;8.70;;;8.20;;
22995;SDS011;11664;49.774;8.650;2023-06-14T09:34:11;7.43;;;6.93;;
22995;SDS011;11664;49.774;8.650;2023-06-14T09:36:37;7.22;;;6.82;;
22995;SDS011;11664;49.774;8.650;2023-06-14T09:39:05;7.10;;;6.50;;
22995;SDS011;11664;49.774;8.650;2023-06-14T09:41:36;6.63;;;6.15;;
22995;SDS011;11664;49.774;8.650;2023-06-14T09:44:03;6.17;;;5.73;;
22995;SDS011;11664;49.774;8.650;2023-06-14T09:46:31;8.95;;;8.32;;
22995;SDS011;11664;49.774;8.650;2023-06-14T09:48:57;10.27;;;9.73;;
22995;SDS011;11664;49.774;8.650;2023-06-14T09:51:24;6.95;;;6.45;;
22995;SDS011;11664;49.774;8.650;2023-06-14T09:53:50;5.47;;;5.18;;
22995;SDS011;11664;49.774;8.650;2023-06-14T09:56:37;5.75;;;5.35;;
22995;SDS011;11664;49.774;8.650;2023-06-14T09:59:04;5.10;;;4.80;;
22995;SDS011;11664;49.774;8.650;2023-06-14T10:01:32;5.53;;;5.13;;
22995;SDS011;11664;49.774;8.650;2023-06-14T10:04:01;4.68;;;4.38;;
22995;SDS011;11664;49.774;8.650;2023-06-14T10:06:29;4.93;;;4.55;;
22995;SDS011;11664;49.774;8.650;2023-06-14T10:08:56;4.20;;;3.90;;
22995;SDS011;11664;49.774;8.650;2023-06-14T10:11:25;4.95;;;4.32;;
22995;SDS011;11664;49.774;8.650;2023-06-14T10:13:51;3.95;;;3.75;;
22995;SDS011;11664;49.774;8.650;2023-06-14T10:21:57;8.77;;;8.07;;
22995;SDS011;11664;49.774;8.650;2023-06-14T10:24:31;7.60;;;7.15;;
22995;SDS011;11664;49.774;8.650;2023-06-14T10:26:59;10.02;;;8.85;;
22995;SDS011;11664;49.774;8.650;2023-06-14T10:29:26;6.40;;;5.97;;
22995;SDS011;11664;49.774;8.650;2023-06-14T10:31:57;6.72;;;6.22;;
22995;SDS011;11664;49.774;8.650;2023-06-14T10:34:27;5.55;;;5.15;;
22995;SDS011;11664;49.774;8.650;2023-06-14T10:37:04;6.10;;;5.55;;
22995;SDS011;11664;49.774;8.650;2023-06-14T10:39:41;5.13;;;4.72;;
22995;SDS011;11664;49.774;8.650;2023-06-14T10:42:08;5.47;;;4.68;;
22995;SDS011;11664;49.774;8.650;2023-06-14T10:47:26;4.15;;;3.95;;
22995;SDS011;11664;49.774;8.650;2023-06-14T10:50:06;4.40;;;4.10;;
22995;SDS011;11664;49.774;8.650;2023-06-14T10:52:36;7.55;;;4.88;;
22995;SDS011;11664;49.774;8.650;2023-06-14T10:55:13;5.22;;;4.90;;
22995;SDS011;11664;49.774;8.650;2023-06-14T10:57:47;4.78;;;4.47;;
22995;SDS011;11664;49.774;8.650;2023-06-14T11:00:16;6.20;;;5.60;;
22995;SDS011;11664;49.774;8.650;2023-06-14T11:05:51;7.30;;;6.57;;
22995;SDS011;11664;49.774;8.650;2023-06-14T11:08:24;6.22;;;5.82;;
22995;SDS011;11664;49.774;8.650;2023-06-14T11:10:53;4.72;;;4.32;;
22995;SDS011;11664;49.774;8.650;2023-06-14T11:13:24;4.93;;;4.53;;
22995;SDS011;11664;49.774;8.650;2023-06-14T11:15:50;4.53;;;4.22;;
22995;SDS011;11664;49.774;8.650;2023-06-14T11:18:18;5.78;;;5.38;;
22995;SDS011;11664;49.774;8.650;2023-06-14T11:20:45;4.50;;;4.20;;
22995;SDS011;11664;49.774;8.650;2023-06-14T11:23:11;5.40;;;4.32;;
22995;SDS011;11664;49.774;8.650;2023-06-14T11:25:37;4.25;;;3.90;;
22995;SDS011;11664;49.774;8.650;2023-06-14T11:28:02;5.22;;;4.82;;
22995;SDS011;11664;49.774;8.650;2023-06-14T11:30:28;6.18;;;5.78;;
22995;SDS011;11664;49.774;8.650;2023-06-14T11:32:54;4.15;;;3.85;;
22995;SDS011;11664;49.774;8.650;2023-06-14T11:35:23;4.63;;;4.32;;
22995;SDS011;11664;49.774;8.650;2023-06-14T11:37:53;6.40;;;6.00;;
22995;SDS011;11664;49.774;8.650;2023-06-14T11:40:25;4.53;;;4.20;;
22995;SDS011;11664;49.774;8.650;2023-06-14T11:42:59;4.90;;;4.45;;
22995;SDS011;11664;49.774;8.650;2023-06-14T11:45:26;8.07;;;7.57;;
22995;SDS011;11664;49.774;8.650;2023-06-14T11:47:53;6.38;;;6.00;;
22995;SDS011;11664;49.774;8.650;2023-06-14T11:50:21;8.45;;;7.88;;
22995;SDS011;11664;49.774;8.650;2023-06-14T11:52:53;4.85;;;4.35;;
22995;SDS011;11664;49.774;8.650;2023-06-14T11:55:24;5.18;;;4.68;;
22995;SDS011;11664;49.774;8.650;2023-06-14T11:57:51;4.50;;;4.10;;
22995;SDS011;11664;49.774;8.650;2023-06-14T12:00:18;5.55;;;5.00;;
22995;SDS011;11664;49.774;8.650;2023-06-14T12:02:52;5.22;;;4.82;;
22995;SDS011;11664;49.774;8.650;2023-06-14T12:05:20;10.82;;;10.13;;
22995;SDS011;11664;49.774;8.650;2023-06-14T12:07:47;4.63;;;4.25;;
22995;SDS011;11664;49.774;8.650;2023-06-14T12:10:13;4.60;;;4.30;;
22995;SDS011;11664;49.774;8.650;2023-06-14T12:12:39;6.72;;;6.10;;
22995;SDS011;11664;49.774;8.650;2023-06-14T12:15:08;7.32;;;4.43;;
22995;SDS011;11664;49.774;8.650;2023-06-14T12:17:38;5.97;;;5.57;;
22995;SDS011;11664;49.774;8.650;2023-06-14T12:20:09;7.35;;;6.82;;
22995;SDS011;11664;49.774;8.650;2023-06-14T12:22:38;7.18;;;6.60;;
22995;SDS011;11664;49.774;8.650;2023-06-14T12:27:56;4.25;;;3.95;;
22995;SDS011;11664;49.774;8.650;2023-06-14T12:30:22;11.45;;;4.25;;
22995;SDS011;11664;49.774;8.650;2023-06-14T12:32:48;5.32;;;5.03;;
22995;SDS011;11664;49.774;8.650;2023-06-14T12:35:14;4.88;;;4.47;;
22995;SDS011;11664;49.774;8.650;2023-06-14T12:37:40;6.90;;;6.38;;
22995;SDS011;11664;49.774;8.650;2023-06-14T12:40:06;5.57;;;5.18;;
22995;SDS011;11664;49.774;8.650;2023-06-14T12:42:32;4.93;;;4.53;;
22995;SDS011;11664;49.774;8.650;2023-06-14T12:44:58;4.00;;;3.70;;
22995;SDS011;11664;49.774;8.650;2023-06-14T12:47:24;4.53;;;4.13;;
22995;SDS011;11664;49.774;8.650;2023-06-14T12:49:50;4.80;;;4.40;;
22995;SDS011;11664;49.774;8.650;2023-06-14T12:52:15;4.72;;;4.25;;
22995;SDS011;11664;49.774;8.650;2023-06-14T12:54:41;4.43;;;4.00;;
22995;SDS011;11664;49.774;8.650;2023-06-14T12:57:06;5.13;;;4.72;;
22995;SDS011;11664;49.774;8.650;2023-06-14T12:59:32;4.85;;;4.53;;
22995;SDS011;11664;49.774;8.650;2023-06-14T13:01:59;8.65;;;7.22;;
22995;SDS011;11664;49.774;8.650;2023-06-14T13:04:35;5.88;;;5.38;;
22995;SDS011;11664;49.774;8.650;2023-06-14T13:07:01;4.55;;;4.15;;
22995;SDS011;11664;49.774;8.650;2023-06-14T13:09:26;5.80;;;5.40;;
22995;SDS011;11664;49.774;8.650;2023-06-14T13:11:52;6.30;;;4.85;;
22995;SDS011;11664;49.774;8.650;2023-06-14T13:14:17;4.47;;;4.15;;
22995;SDS011;11664;49.774;8.650;2023-06-14T13:16:43;5.10;;;3.67;;
22995;SDS011;11664;49.774;8.650;2023-06-14T13:19:09;4.18;;;3.88;;
22995;SDS011;11664;49.774;8.650;2023-06-14T13:21:34;8.18;;;5.05;;
22995;SDS011;11664;49.774;8.650;2023-06-14T13:24:00;5.03;;;4.22;;
22995;SDS011;11664;49.774;8.650;2023-06-14T13:26:25;3.97;;;3.78;;
22995;SDS011;11664;49.774;8.650;2023-06-14T13:28:51;8.02;;;4.28;;
22995;SDS011;11664;49.774;8.650;2023-06-14T13:31:17;4.88;;;4.28;;
22995;SDS011;11664;49.774;8.650;2023-06-14T13:33:42;4.20;;;3.90;;
22995;SDS011;11664;49.774;8.650;2023-06-14T13:36:08;4.65;;;4.25;;
22995;SDS011;11664;49.774;8.650;2023-06-14T13:38:34;5.72;;;5.20;;
22995;SDS011;11664;49.774;8.650;2023-06-14T13:40:59;4.95;;;4.55;;
22995;SDS011;11664;49.774;8.650;2023-06-14T13:43:25;4.85;;;4.45;;
22995;SDS011;11664;49.774;8.650;2023-06-14T13:45:50;5.38;;;4.50;;
22995;SDS011;11664;49.774;8.650;2023-06-14T13:48:16;3.72;;;3.42;;
22995;SDS011;11664;49.774;8.650;2023-06-14T13:50:41;4.15;;;3.83;;
22995;SDS011;11664;49.774;8.650;2023-06-14T13:53:07;4.57;;;4.28;;
22995;SDS011;11664;49.774;8.650;2023-06-14T13:55:32;11.00;;;9.93;;
22995;SDS011;11664;49.774;8.650;2023-06-14T13:57:58;13.32;;;12.27;;
22995;SDS011;11664;49.774;8.650;2023-06-14T14:00:23;12.30;;;11.60;;
22995;SDS011;11664;49.774;8.650;2023-06-14T14:02:50;5.80;;;5.38;;
22995;SDS011;11664;49.774;8.650;2023-06-14T14:05:15;5.35;;;4.85;;
22995;SDS011;11664;49.774;8.650;2023-06-14T14:07:41;5.70;;;5.30;;
22995;SDS011;11664;49.774;8.650;2023-06-14T14:10:07;4.95;;;4.45;;
22995;SDS011;11664;49.774;8.650;2023-06-14T14:12:33;6.10;;;5.78;;
22995;SDS011;11664;49.774;8.650;2023-06-14T14:14:59;5.32;;;4.93;;
22995;SDS011;11664;49.774;8.650;2023-06-14T14:17:25;5.00;;;4.70;;
22995;SDS011;11664;49.774;8.650;2023-06-14T14:19:50;4.75;;;4.40;;
22995;SDS011;11664;49.774;8.650;2023-06-14T14:22:16;4.50;;;4.20;;
22995;SDS011;11664;49.774;8.650;2023-06-14T14:24:42;9.35;;;8.75;;
22995;SDS011;11664;49.774;8.650;2023-06-14T14:27:07;5.78;;;4.40;;
22995;SDS011;11664;49.774;8.650;2023-06-14T14:29:33;4.75;;;4.35;;
22995;SDS011;11664;49.774;8.650;2023-06-14T14:31:59;3.97;;;3.67;;
22995;SDS011;11664;49.774;8.650;2023-06-14T14:34:24;4.65;;;4.30;;
22995;SDS011;11664;49.774;8.650;2023-06-14T14:36:50;6.75;;;6.25;;
22995;SDS011;11664;49.774;8.650;2023-06-14T14:39:16;5.18;;;4.57;;
22995;SDS011;11664;49.774;8.650;2023-06-14T14:41:41;8.63;;;4.07;;
22995;SDS011;11664;49.774;8.650;2023-06-14T14:44:07;5.38;;;4.90;;
22995;SDS011;11664;49.774;8.650;2023-06-14T14:46:32;5.32;;;5.00;;
22995;SDS011;11664;49.774;8.650;2023-06-14T14:48:58;6.30;;;5.95;;
22995;SDS011;11664;49.774;8.650;2023-06-14T14:51:25;4.47;;;4.07;;
22995;SDS011;11664;49.774;8.650;2023-06-14T14:53:50;3.80;;;3.50;;
22995;SDS011;11664;49.774;8.650;2023-06-14T14:56:16;3.97;;;3.67;;
22995;SDS011;11664;49.774;8.650;2023-06-14T14:58:42;4.90;;;4.57;;
22995;SDS011;11664;49.774;8.650;2023-06-14T15:01:07;4.45;;;4.15;;
22995;SDS011;11664;49.774;8.650;2023-06-14T15:03:33;5.13;;;4.20;;
22995;SDS011;11664;49.774;8.650;2023-06-14T15:05:58;4.05;;;3.75;;
22995;SDS011;11664;49.774;8.650;2023-06-14T15:08:24;22.85;;;6.07;;
22995;SDS011;11664;49.774;8.650;2023-06-14T15:10:50;4.65;;;4.35;;
22995;SDS011;11664;49.774;8.650;2023-06-14T15:13:16;6.60;;;6.20;;
22995;SDS011;11664;49.774;8.650;2023-06-14T15:15:41;3.63;;;3.40;;